sensor_id;sensor_type;location;lat;lon;timestamp;pressure;altitude;pressure_sealevel;temperature;humidity
68656;BME280;55638;51.122;13.606;2023-04-19T00:00:30;100998.94;;;8.54;65.52
68656;BME280;55638;51.122;13.606;2023-04-19T00:02:02;100992.72;;;8.53;65.63
68656;BME280;55638;51.122;13.606;2023-04-19T00:03:34;100990.88;;;8.54;65.60
68656;BME280;55638;51.122;13.606;2023-04-19T00:05:06;100987.31;;;8.53;65.48
68656;BME280;55638;51.122;13.606;2023-04-19T00:06:39;100985.59;;;8.52;65.26
68656;BME280;55638;51.122;13.606;2023-04-19T00:08:12;100987.31;;;8.53;65.55
68656;BME280;55638;51.122;13.606;2023-04-19T00:09:44;100984.75;;;8.52;65.44
68656;BME280;55638;51.122;13.606;2023-04-19T00:11:16;100982.06;;;8.52;65.26
68656;BME280;55638;51.122;13.606;2023-04-19T00:12:48;100990.13;;;8.52;65.33
68656;BME280;55638;51.122;13.606;2023-04-19T00:14:19;100991.06;;;8.51;65.20
68656;BME280;55638;51.122;13.606;2023-04-19T00:15:51;100985.81;;;8.49;65.35
68656;BME280;55638;51.122;13.606;2023-04-19T00:17:23;100983.13;;;8.49;65.28
68656;BME280;55638;51.122;13.606;2023-04-19T00:18:55;100984.94;;;8.49;65.14
68656;BME280;55638;51.122;13.606;2023-04-19T00:20:27;100978.59;;;8.50;65.13
68656;BME280;55638;51.122;13.606;2023-04-19T00:21:59;100984.06;;;8.48;65.26
68656;BME280;55638;51.122;13.606;2023-04-19T00:23:31;100973.41;;;8.47;65.20
68656;BME280;55638;51.122;13.606;2023-04-19T00:25:03;100981.47;;;8.47;65.17
68656;BME280;55638;51.122;13.606;2023-04-19T00:26:35;100975.31;;;8.45;65.05
68656;BME280;55638;51.122;13.606;2023-04-19T00:28:08;100975.31;;;8.45;64.95
68656;BME280;55638;51.122;13.606;2023-04-19T00:29:39;100978.00;;;8.45;65.01
68656;BME280;55638;51.122;13.606;2023-04-19T00:31:11;100976.28;;;8.44;64.96
68656;BME280;55638;51.122;13.606;2023-04-19T00:32:43;100979.94;;;8.43;65.01
68656;BME280;55638;51.122;13.606;2023-04-19T00:34:15;100973.72;;;8.42;65.02
68656;BME280;55638;51.122;13.606;2023-04-19T00:35:47;100979.16;;;8.41;64.85
68656;BME280;55638;51.122;13.606;2023-04-19T00:37:20;100974.75;;;8.40;65.01
68656;BME280;55638;51.122;13.606;2023-04-19T00:38:51;100980.13;;;8.40;64.99
68656;BME280;55638;51.122;13.606;2023-04-19T00:40:23;100973.97;;;8.38;64.97
68656;BME280;55638;51.122;13.606;2023-04-19T00:41:55;100971.28;;;8.38;65.05
68656;BME280;55638;51.122;13.606;2023-04-19T00:43:30;100973.13;;;8.37;64.82
68656;BME280;55638;51.122;13.606;2023-04-19T00:45:04;100972.25;;;8.37;64.88
68656;BME280;55638;51.122;13.606;2023-04-19T00:46:36;100963.34;;;8.36;64.95
68656;BME280;55638;51.122;13.606;2023-04-19T00:48:09;100966.97;;;8.35;64.91
68656;BME280;55638;51.122;13.606;2023-04-19T00:49:42;100967.94;;;8.34;65.00
68656;BME280;55638;51.122;13.606;2023-04-19T00:51:14;100965.25;;;8.34;64.81
68656;BME280;55638;51.122;13.606;2023-04-19T00:52:47;100971.59;;;8.33;64.94
68656;BME280;55638;51.122;13.606;2023-04-19T00:54:19;100962.66;;;8.32;64.71
68656;BME280;55638;51.122;13.606;2023-04-19T00:55:55;100959.19;;;8.30;64.67
68656;BME280;55638;51.122;13.606;2023-04-19T00:57:28;100967.16;;;8.32;64.73
68656;BME280;55638;51.122;13.606;2023-04-19T00:59:00;100958.34;;;8.30;64.95
68656;BME280;55638;51.122;13.606;2023-04-19T01:00:35;100954.88;;;8.28;64.64
68656;BME280;55638;51.122;13.606;2023-04-19T01:02:08;100949.50;;;8.28;64.78
68656;BME280;55638;51.122;13.606;2023-04-19T01:03:40;100958.53;;;8.27;64.70
68656;BME280;55638;51.122;13.606;2023-04-19T01:05:13;100951.44;;;8.26;64.84
68656;BME280;55638;51.122;13.606;2023-04-19T01:06:45;100955.06;;;8.25;64.64
68656;BME280;55638;51.122;13.606;2023-04-19T01:08:17;100954.28;;;8.23;64.80
68656;BME280;55638;51.122;13.606;2023-04-19T01:09:52;100948.03;;;8.22;64.80
68656;BME280;55638;51.122;13.606;2023-04-19T01:11:27;100957.03;;;8.21;64.65
68656;BME280;55638;51.122;13.606;2023-04-19T01:12:59;100957.16;;;8.20;64.63
68656;BME280;55638;51.122;13.606;2023-04-19T01:14:31;100962.53;;;8.20;64.61
68656;BME280;55638;51.122;13.606;2023-04-19T01:16:03;100948.31;;;8.18;64.76
68656;BME280;55638;51.122;13.606;2023-04-19T01:17:35;100960.97;;;8.16;64.56
68656;BME280;55638;51.122;13.606;2023-04-19T01:19:08;100948.50;;;8.15;64.74
68656;BME280;55638;51.122;13.606;2023-04-19T01:20:40;100953.88;;;8.15;64.60
68656;BME280;55638;51.122;13.606;2023-04-19T01:22:19;100954.16;;;8.10;64.42
68656;BME280;55638;51.122;13.606;2023-04-19T01:23:52;100955.03;;;8.10;64.73
68656;BME280;55638;51.122;13.606;2023-04-19T01:25:26;100954.25;;;8.08;64.69
68656;BME280;55638;51.122;13.606;2023-04-19T01:26:58;100957.91;;;8.07;64.65
68656;BME280;55638;51.122;13.606;2023-04-19T01:28:31;100953.50;;;8.06;64.55
68656;BME280;55638;51.122;13.606;2023-04-19T01:30:03;100957.22;;;8.04;64.64
68656;BME280;55638;51.122;13.606;2023-04-19T01:31:35;100953.69;;;8.03;64.55
68656;BME280;55638;51.122;13.606;2023-04-19T01:33:07;100954.63;;;8.02;64.66
68656;BME280;55638;51.122;13.606;2023-04-19T01:34:39;100956.56;;;8.00;64.62
68656;BME280;55638;51.122;13.606;2023-04-19T01:36:13;100951.25;;;7.99;64.63
68656;BME280;55638;51.122;13.606;2023-04-19T01:37:45;100953.19;;;7.97;64.61
68656;BME280;55638;51.122;13.606;2023-04-19T01:39:17;100953.25;;;7.95;64.58
68656;BME280;55638;51.122;13.606;2023-04-19T01:40:49;100947.03;;;7.95;64.43
68656;BME280;55638;51.122;13.606;2023-04-19T01:42:21;100947.13;;;7.93;64.64
68656;BME280;55638;51.122;13.606;2023-04-19T01:43:53;100948.09;;;7.92;64.62
68656;BME280;55638;51.122;13.606;2023-04-19T01:45:25;100945.50;;;7.91;64.67
68656;BME280;55638;51.122;13.606;2023-04-19T01:46:57;100942.03;;;7.89;64.56
68656;BME280;55638;51.122;13.606;2023-04-19T01:48:29;100943.88;;;7.88;64.81
68656;BME280;55638;51.122;13.606;2023-04-19T01:50:00;100935.03;;;7.86;64.78
68656;BME280;55638;51.122;13.606;2023-04-19T01:51:32;100936.00;;;7.85;64.79
68656;BME280;55638;51.122;13.606;2023-04-19T01:53:04;100939.66;;;7.84;64.82
68656;BME280;55638;51.122;13.606;2023-04-19T01:54:36;100942.22;;;7.85;64.83
68656;BME280;55638;51.122;13.606;2023-04-19T01:56:08;100940.56;;;7.83;64.85
68656;BME280;55638;51.122;13.606;2023-04-19T01:57:40;100937.91;;;7.83;64.77
68656;BME280;55638;51.122;13.606;2023-04-19T01:59:12;100936.19;;;7.82;64.67
68656;BME280;55638;51.122;13.606;2023-04-19T02:00:44;100935.31;;;7.81;64.74
68656;BME280;55638;51.122;13.606;2023-04-19T02:02:16;100930.03;;;7.80;64.63
68656;BME280;55638;51.122;13.606;2023-04-19T02:03:48;100935.38;;;7.80;64.69
68656;BME280;55638;51.122;13.606;2023-04-19T02:05:20;100930.13;;;7.78;64.51
68656;BME280;55638;51.122;13.606;2023-04-19T02:06:52;100929.28;;;7.78;64.58
68656;BME280;55638;51.122;13.606;2023-04-19T02:08:25;100929.34;;;7.76;64.42
68656;BME280;55638;51.122;13.606;2023-04-19T02:09:57;100928.50;;;7.76;64.46
68656;BME280;55638;51.122;13.606;2023-04-19T02:11:30;100934.81;;;7.75;64.37
68656;BME280;55638;51.122;13.606;2023-04-19T02:13:02;100926.84;;;7.73;64.31
68656;BME280;55638;51.122;13.606;2023-04-19T02:14:34;100934.03;;;7.73;64.39
68656;BME280;55638;51.122;13.606;2023-04-19T02:16:06;100927.03;;;7.70;64.33
68656;BME280;55638;51.122;13.606;2023-04-19T02:17:38;100926.16;;;7.70;64.39
68656;BME280;55638;51.122;13.606;2023-04-19T02:19:11;100934.31;;;7.68;64.23
68656;BME280;55638;51.122;13.606;2023-04-19T02:20:43;100933.47;;;7.68;64.31
68656;BME280;55638;51.122;13.606;2023-04-19T02:22:14;100938.03;;;7.66;64.32
68656;BME280;55638;51.122;13.606;2023-04-19T02:23:46;100932.75;;;7.64;64.12
68656;BME280;55638;51.122;13.606;2023-04-19T02:25:18;100926.63;;;7.62;64.18
68656;BME280;55638;51.122;13.606;2023-04-19T02:26:50;100922.31;;;7.59;64.07
68656;BME280;55638;51.122;13.606;2023-04-19T02:28:22;100925.00;;;7.59;63.94
68656;BME280;55638;51.122;13.606;2023-04-19T02:29:54;100925.16;;;7.56;64.17
68656;BME280;55638;51.122;13.606;2023-04-19T02:31:28;100924.38;;;7.54;64.09
68656;BME280;55638;51.122;13.606;2023-04-19T02:32:59;100933.41;;;7.53;64.17
68656;BME280;55638;51.122;13.606;2023-04-19T02:34:32;100931.88;;;7.49;64.13
68656;BME280;55638;51.122;13.606;2023-04-19T02:36:05;100928.41;;;7.47;64.02
68656;BME280;55638;51.122;13.606;2023-04-19T02:37:37;100931.19;;;7.46;64.02
68656;BME280;55638;51.122;13.606;2023-04-19T02:39:09;100921.41;;;7.45;64.05
68656;BME280;55638;51.122;13.606;2023-04-19T02:40:42;100924.28;;;7.42;64.07
68656;BME280;55638;51.122;13.606;2023-04-19T02:42:14;100923.50;;;7.39;64.13
68656;BME280;55638;51.122;13.606;2023-04-19T02:43:45;100926.25;;;7.38;64.15
68656;BME280;55638;51.122;13.606;2023-04-19T02:45:17;100924.53;;;7.37;64.18
68656;BME280;55638;51.122;13.606;2023-04-19T02:46:50;100918.41;;;7.35;64.01
68656;BME280;55638;51.122;13.606;2023-04-19T02:48:23;100917.63;;;7.33;63.96
68656;BME280;55638;51.122;13.606;2023-04-19T02:49:54;100919.50;;;7.31;64.18
68656;BME280;55638;51.122;13.606;2023-04-19T02:51:26;100915.13;;;7.30;64.24
68656;BME280;55638;51.122;13.606;2023-04-19T02:52:58;100913.41;;;7.29;64.23
68656;BME280;55638;51.122;13.606;2023-04-19T02:54:33;100916.09;;;7.29;64.07
68656;BME280;55638;51.122;13.606;2023-04-19T02:56:06;100915.28;;;7.27;64.08
68656;BME280;55638;51.122;13.606;2023-04-19T02:57:38;100906.47;;;7.25;64.20
68656;BME280;55638;51.122;13.606;2023-04-19T02:59:12;100903.78;;;7.25;64.08
68656;BME280;55638;51.122;13.606;2023-04-19T03:00:44;100916.44;;;7.23;63.96
68656;BME280;55638;51.122;13.606;2023-04-19T03:02:19;100904.13;;;7.19;64.05
68656;BME280;55638;51.122;13.606;2023-04-19T03:03:51;100910.38;;;7.19;64.20
68656;BME280;55638;51.122;13.606;2023-04-19T03:05:23;100899.72;;;7.18;64.17
68656;BME280;55638;51.122;13.606;2023-04-19T03:06:55;100911.31;;;7.18;64.15
68656;BME280;55638;51.122;13.606;2023-04-19T03:08:27;100911.44;;;7.16;64.36
68656;BME280;55638;51.122;13.606;2023-04-19T03:10:00;100905.28;;;7.14;64.01
68656;BME280;55638;51.122;13.606;2023-04-19T03:11:32;100903.56;;;7.13;64.06
68656;BME280;55638;51.122;13.606;2023-04-19T03:13:04;100900.09;;;7.11;64.17
68656;BME280;55638;51.122;13.606;2023-04-19T03:14:36;100899.22;;;7.11;64.07
68656;BME280;55638;51.122;13.606;2023-04-19T03:16:08;100898.38;;;7.10;64.14
68656;BME280;55638;51.122;13.606;2023-04-19T03:17:41;100899.41;;;7.08;64.22
68656;BME280;55638;51.122;13.606;2023-04-19T03:19:13;100900.38;;;7.07;64.39
68656;BME280;55638;51.122;13.606;2023-04-19T03:20:51;100889.72;;;7.05;64.22
68656;BME280;55638;51.122;13.606;2023-04-19T03:22:23;100888.78;;;7.06;64.19
68656;BME280;55638;51.122;13.606;2023-04-19T03:23:55;100892.38;;;7.05;64.28
68656;BME280;55638;51.122;13.606;2023-04-19T03:25:29;100893.34;;;7.04;64.29
68656;BME280;55638;51.122;13.606;2023-04-19T03:27:12;100886.28;;;7.03;64.09
68656;BME280;55638;51.122;13.606;2023-04-19T03:28:46;100886.34;;;7.02;64.04
68656;BME280;55638;51.122;13.606;2023-04-19T03:30:19;100884.63;;;7.01;64.13
68656;BME280;55638;51.122;13.606;2023-04-19T03:31:51;100882.91;;;7.00;64.16
68656;BME280;55638;51.122;13.606;2023-04-19T03:33:23;100882.06;;;6.99;64.15
68656;BME280;55638;51.122;13.606;2023-04-19T03:34:55;100872.25;;;6.98;64.21
68656;BME280;55638;51.122;13.606;2023-04-19T03:36:28;100865.25;;;6.96;63.98
68656;BME280;55638;51.122;13.606;2023-04-19T03:38:00;100872.53;;;6.93;64.15
68656;BME280;55638;51.122;13.606;2023-04-19T03:39:32;100869.84;;;6.93;64.23
68656;BME280;55638;51.122;13.606;2023-04-19T03:41:23;100874.44;;;6.91;63.92
68656;BME280;55638;51.122;13.606;2023-04-19T03:43:15;100861.03;;;6.91;64.17
68656;BME280;55638;51.122;13.606;2023-04-19T03:44:47;100865.53;;;6.91;64.11
68656;BME280;55638;51.122;13.606;2023-04-19T03:46:21;100864.75;;;6.89;64.17
68656;BME280;55638;51.122;13.606;2023-04-19T03:47:53;100859.50;;;6.87;64.15
68656;BME280;55638;51.122;13.606;2023-04-19T03:49:25;100867.59;;;6.86;64.03
68656;BME280;55638;51.122;13.606;2023-04-19T03:51:06;100870.28;;;6.86;64.21
68656;BME280;55638;51.122;13.606;2023-04-19T03:52:38;100866.75;;;6.85;64.30
68656;BME280;55638;51.122;13.606;2023-04-19T03:54:10;100873.09;;;6.83;64.16
68656;BME280;55638;51.122;13.606;2023-04-19T03:55:42;100874.06;;;6.82;64.17
68656;BME280;55638;51.122;13.606;2023-04-19T03:57:15;100866.13;;;6.80;64.13
68656;BME280;55638;51.122;13.606;2023-04-19T03:58:50;100863.44;;;6.80;63.92
68656;BME280;55638;51.122;13.606;2023-04-19T04:00:22;100872.50;;;6.78;64.06
68656;BME280;55638;51.122;13.606;2023-04-19T04:01:59;100871.66;;;6.77;63.97
68656;BME280;55638;51.122;13.606;2023-04-19T04:03:31;100865.44;;;6.77;63.97
68656;BME280;55638;51.122;13.606;2023-04-19T04:05:06;100863.69;;;6.76;64.17
68656;BME280;55638;51.122;13.606;2023-04-19T04:06:39;100866.47;;;6.74;63.74
68656;BME280;55638;51.122;13.606;2023-04-19T04:08:11;100863.84;;;6.73;64.04
68656;BME280;55638;51.122;13.606;2023-04-19T04:09:44;100863.09;;;6.70;63.86
68656;BME280;55638;51.122;13.606;2023-04-19T04:11:18;100865.78;;;6.70;63.79
68656;BME280;55638;51.122;13.606;2023-04-19T04:12:52;100875.72;;;6.68;63.69
68656;BME280;55638;51.122;13.606;2023-04-19T04:14:30;100875.81;;;6.67;63.75
68656;BME280;55638;51.122;13.606;2023-04-19T04:16:03;100875.97;;;6.64;63.73
68656;BME280;55638;51.122;13.606;2023-04-19T04:17:35;100878.66;;;6.64;63.72
68656;BME280;55638;51.122;13.606;2023-04-19T04:19:08;100871.66;;;6.61;63.73
68656;BME280;55638;51.122;13.606;2023-04-19T04:20:44;100879.69;;;6.61;63.77
68656;BME280;55638;51.122;13.606;2023-04-19T04:22:16;100879.00;;;6.58;63.78
68656;BME280;55638;51.122;13.606;2023-04-19T04:23:48;100872.00;;;6.55;63.89
68656;BME280;55638;51.122;13.606;2023-04-19T04:25:43;100881.84;;;6.55;63.62
68656;BME280;55638;51.122;13.606;2023-04-19T04:27:17;100886.41;;;6.53;63.71
68656;BME280;55638;51.122;13.606;2023-04-19T04:28:53;100881.16;;;6.51;63.56
68656;BME280;55638;51.122;13.606;2023-04-19T04:30:25;100884.75;;;6.50;63.88
68656;BME280;55638;51.122;13.606;2023-04-19T04:32:00;100874.06;;;6.50;63.87
68656;BME280;55638;51.122;13.606;2023-04-19T04:33:39;100881.31;;;6.48;63.96
68656;BME280;55638;51.122;13.606;2023-04-19T04:35:14;100888.56;;;6.46;63.81
68656;BME280;55638;51.122;13.606;2023-04-19T04:36:53;100887.59;;;6.47;63.94
68656;BME280;55638;51.122;13.606;2023-04-19T04:38:26;100881.56;;;6.43;63.68
68656;BME280;55638;51.122;13.606;2023-04-19T04:39:59;100888.72;;;6.43;63.86
68656;BME280;55638;51.122;13.606;2023-04-19T04:41:32;100883.38;;;6.43;63.63
68656;BME280;55638;51.122;13.606;2023-04-19T04:43:04;100878.19;;;6.40;63.66
68656;BME280;55638;51.122;13.606;2023-04-19T04:44:37;100889.75;;;6.40;63.72
68656;BME280;55638;51.122;13.606;2023-04-19T04:46:11;100880.00;;;6.39;63.60
68656;BME280;55638;51.122;13.606;2023-04-19T04:47:45;100881.81;;;6.39;63.75
68656;BME280;55638;51.122;13.606;2023-04-19T04:49:19;100881.91;;;6.37;63.64
68656;BME280;55638;51.122;13.606;2023-04-19T04:50:51;100873.00;;;6.37;63.82
68656;BME280;55638;51.122;13.606;2023-04-19T04:52:23;100877.59;;;6.35;63.83
68656;BME280;55638;51.122;13.606;2023-04-19T04:54:03;100876.75;;;6.34;63.76
68656;BME280;55638;51.122;13.606;2023-04-19T04:55:36;100867.81;;;6.34;63.63
68656;BME280;55638;51.122;13.606;2023-04-19T04:57:08;100869.56;;;6.35;63.63
68656;BME280;55638;51.122;13.606;2023-04-19T04:58:40;100867.81;;;6.34;63.61
68656;BME280;55638;51.122;13.606;2023-04-19T05:00:16;100866.94;;;6.33;63.50
68656;BME280;55638;51.122;13.606;2023-04-19T05:01:59;100867.06;;;6.32;63.26
68656;BME280;55638;51.122;13.606;2023-04-19T05:03:31;100868.88;;;6.31;63.49
68656;BME280;55638;51.122;13.606;2023-04-19T05:05:06;100875.09;;;6.32;63.51
68656;BME280;55638;51.122;13.606;2023-04-19T05:06:41;100885.78;;;6.32;63.47
68656;BME280;55638;51.122;13.606;2023-04-19T05:08:16;100883.19;;;6.30;63.35
68656;BME280;55638;51.122;13.606;2023-04-19T05:09:49;100876.97;;;6.30;63.33
68656;BME280;55638;51.122;13.606;2023-04-19T05:11:26;100877.84;;;6.30;63.12
68656;BME280;55638;51.122;13.606;2023-04-19T05:13:00;100881.31;;;6.32;63.07
68656;BME280;55638;51.122;13.606;2023-04-19T05:14:33;100880.44;;;6.32;63.25
68656;BME280;55638;51.122;13.606;2023-04-19T05:16:05;100880.44;;;6.32;62.98
68656;BME280;55638;51.122;13.606;2023-04-19T05:17:38;100871.44;;;6.33;63.03
68656;BME280;55638;51.122;13.606;2023-04-19T05:19:10;100878.53;;;6.34;62.90
68656;BME280;55638;51.122;13.606;2023-04-19T05:20:48;100883.88;;;6.34;62.94
68656;BME280;55638;51.122;13.606;2023-04-19T05:22:26;100873.16;;;6.34;63.11
68656;BME280;55638;51.122;13.606;2023-04-19T05:23:58;100882.00;;;6.36;62.91
68656;BME280;55638;51.122;13.606;2023-04-19T05:25:29;100885.47;;;6.38;63.00
68656;BME280;55638;51.122;13.606;2023-04-19T05:27:02;100878.19;;;6.40;62.79
68656;BME280;55638;51.122;13.606;2023-04-19T05:28:34;100880.81;;;6.41;62.88
68656;BME280;55638;51.122;13.606;2023-04-19T05:30:14;100884.06;;;6.46;63.47
68656;BME280;55638;51.122;13.606;2023-04-19T05:31:48;100881.31;;;6.48;63.25
68656;BME280;55638;51.122;13.606;2023-04-19T05:33:40;100875.81;;;6.51;62.84
68656;BME280;55638;51.122;13.606;2023-04-19T05:35:13;100871.03;;;6.56;62.68
68656;BME280;55638;51.122;13.606;2023-04-19T05:36:45;100872.69;;;6.59;62.38
68656;BME280;55638;51.122;13.606;2023-04-19T05:38:17;100877.88;;;6.62;61.88
68656;BME280;55638;51.122;13.606;2023-04-19T05:39:49;100875.13;;;6.63;61.91
68656;BME280;55638;51.122;13.606;2023-04-19T05:41:22;100877.69;;;6.65;62.00
68656;BME280;55638;51.122;13.606;2023-04-19T05:42:54;100883.75;;;6.68;61.85
68656;BME280;55638;51.122;13.606;2023-04-19T05:44:26;100883.56;;;6.72;61.70
68656;BME280;55638;51.122;13.606;2023-04-19T05:45:58;100880.78;;;6.73;60.74
68656;BME280;55638;51.122;13.606;2023-04-19T05:47:29;100873.66;;;6.74;60.90
68656;BME280;55638;51.122;13.606;2023-04-19T05:49:21;100872.69;;;6.75;59.67
68656;BME280;55638;51.122;13.606;2023-04-19T05:51:20;100866.03;;;6.82;61.59
68656;BME280;55638;51.122;13.606;2023-04-19T05:53:01;100873.84;;;6.86;61.84
68656;BME280;55638;51.122;13.606;2023-04-19T05:54:33;100864.75;;;6.89;62.05
68656;BME280;55638;51.122;13.606;2023-04-19T05:56:07;100869.75;;;6.95;62.68
68656;BME280;55638;51.122;13.606;2023-04-19T05:57:39;100870.25;;;7.02;62.04
68656;BME280;55638;51.122;13.606;2023-04-19T05:59:12;100868.03;;;7.10;61.77
68656;BME280;55638;51.122;13.606;2023-04-19T06:00:45;100868.41;;;7.18;61.16
68656;BME280;55638;51.122;13.606;2023-04-19T06:02:20;100867.03;;;7.27;60.77
68656;BME280;55638;51.122;13.606;2023-04-19T06:03:52;100871.91;;;7.34;59.53
68656;BME280;55638;51.122;13.606;2023-04-19T06:05:25;100865.34;;;7.40;58.66
68656;BME280;55638;51.122;13.606;2023-04-19T06:06:59;100869.56;;;7.44;58.36
68656;BME280;55638;51.122;13.606;2023-04-19T06:08:31;100873.81;;;7.48;58.37
68656;BME280;55638;51.122;13.606;2023-04-19T06:10:03;100871.81;;;7.52;58.54
68656;BME280;55638;51.122;13.606;2023-04-19T06:11:36;100870.53;;;7.57;58.40
68656;BME280;55638;51.122;13.606;2023-04-19T06:13:17;100867.88;;;7.57;55.55
68656;BME280;55638;51.122;13.606;2023-04-19T06:14:51;100865.59;;;7.66;58.38
68656;BME280;55638;51.122;13.606;2023-04-19T06:16:23;100867.97;;;7.70;58.05
68656;BME280;55638;51.122;13.606;2023-04-19T06:17:55;100875.00;;;7.73;57.58
68656;BME280;55638;51.122;13.606;2023-04-19T06:19:30;100873.94;;;7.75;57.43
68656;BME280;55638;51.122;13.606;2023-04-19T06:21:04;100871.94;;;7.79;57.49
68656;BME280;55638;51.122;13.606;2023-04-19T06:22:47;100871.88;;;7.80;55.42
68656;BME280;55638;51.122;13.606;2023-04-19T06:24:19;100865.22;;;7.86;57.40
68656;BME280;55638;51.122;13.606;2023-04-19T06:25:51;100865.03;;;7.89;57.36
68656;BME280;55638;51.122;13.606;2023-04-19T06:27:23;100872.06;;;7.92;56.98
68656;BME280;55638;51.122;13.606;2023-04-19T06:28:54;100857.59;;;7.94;56.60
68656;BME280;55638;51.122;13.606;2023-04-19T06:30:26;100857.28;;;7.99;56.92
68656;BME280;55638;51.122;13.606;2023-04-19T06:31:58;100848.19;;;8.01;56.96
68656;BME280;55638;51.122;13.606;2023-04-19T06:33:30;100860.56;;;8.04;55.93
68656;BME280;55638;51.122;13.606;2023-04-19T06:35:02;100859.59;;;8.05;55.65
68656;BME280;55638;51.122;13.606;2023-04-19T06:36:35;100872.72;;;8.09;55.97
68656;BME280;55638;51.122;13.606;2023-04-19T06:38:06;100865.38;;;8.13;55.10
68656;BME280;55638;51.122;13.606;2023-04-19T06:39:38;100870.72;;;8.13;54.77
68656;BME280;55638;51.122;13.606;2023-04-19T06:41:11;100870.81;;;8.12;54.18
68656;BME280;55638;51.122;13.606;2023-04-19T06:42:42;100864.66;;;8.09;54.06
68656;BME280;55638;51.122;13.606;2023-04-19T06:44:15;100876.28;;;8.10;54.12
68656;BME280;55638;51.122;13.606;2023-04-19T06:45:47;100881.84;;;8.07;54.21
68656;BME280;55638;51.122;13.606;2023-04-19T06:47:19;100874.06;;;8.02;53.69
68656;BME280;55638;51.122;13.606;2023-04-19T06:48:51;100871.56;;;7.99;53.69
68656;BME280;55638;51.122;13.606;2023-04-19T06:50:23;100867.53;;;7.92;53.17
68656;BME280;55638;51.122;13.606;2023-04-19T06:51:55;100872.44;;;7.85;53.05
68656;BME280;55638;51.122;13.606;2023-04-19T06:53:27;100864.00;;;7.77;52.17
68656;BME280;55638;51.122;13.606;2023-04-19T06:54:59;100858.16;;;7.71;52.21
68656;BME280;55638;51.122;13.606;2023-04-19T06:56:41;100865.78;;;7.62;51.69
68656;BME280;55638;51.122;13.606;2023-04-19T06:58:16;100865.19;;;7.57;52.51
68656;BME280;55638;51.122;13.606;2023-04-19T06:59:48;100871.88;;;7.50;52.83
68656;BME280;55638;51.122;13.606;2023-04-19T07:01:19;100867.75;;;7.45;53.21
68656;BME280;55638;51.122;13.606;2023-04-19T07:02:51;100863.50;;;7.40;53.14
68656;BME280;55638;51.122;13.606;2023-04-19T07:04:25;100848.69;;;7.35;52.70
68656;BME280;55638;51.122;13.606;2023-04-19T07:05:57;100853.25;;;7.33;53.54
68656;BME280;55638;51.122;13.606;2023-04-19T07:07:29;100842.72;;;7.30;53.22
68656;BME280;55638;51.122;13.606;2023-04-19T07:09:02;100845.56;;;7.27;53.54
68656;BME280;55638;51.122;13.606;2023-04-19T07:10:34;100844.88;;;7.23;53.30
68656;BME280;55638;51.122;13.606;2023-04-19T07:12:06;100843.34;;;7.19;53.03
68656;BME280;55638;51.122;13.606;2023-04-19T07:13:38;100849.56;;;7.20;53.41
68656;BME280;55638;51.122;13.606;2023-04-19T07:15:10;100844.38;;;7.16;53.23
68656;BME280;55638;51.122;13.606;2023-04-19T07:16:42;100841.88;;;7.13;53.31
68656;BME280;55638;51.122;13.606;2023-04-19T07:18:14;100837.50;;;7.12;53.25
68656;BME280;55638;51.122;13.606;2023-04-19T07:19:47;100836.69;;;7.10;53.56
68656;BME280;55638;51.122;13.606;2023-04-19T07:21:19;100827.03;;;7.08;53.13
68656;BME280;55638;51.122;13.606;2023-04-19T07:22:51;100836.03;;;7.07;53.31
68656;BME280;55638;51.122;13.606;2023-04-19T07:24:23;100832.56;;;7.05;52.88
68656;BME280;55638;51.122;13.606;2023-04-19T07:25:56;100822.69;;;7.05;53.19
68656;BME280;55638;51.122;13.606;2023-04-19T07:27:28;100840.72;;;7.03;53.36
68656;BME280;55638;51.122;13.606;2023-04-19T07:29:00;100831.63;;;7.06;53.10
68656;BME280;55638;51.122;13.606;2023-04-19T07:30:32;100829.03;;;7.04;52.99
68656;BME280;55638;51.122;13.606;2023-04-19T07:32:04;100828.06;;;7.05;53.11
68656;BME280;55638;51.122;13.606;2023-04-19T07:33:36;100825.56;;;7.02;52.46
68656;BME280;55638;51.122;13.606;2023-04-19T07:35:08;100827.47;;;7.00;52.58
68656;BME280;55638;51.122;13.606;2023-04-19T07:36:40;100820.47;;;6.98;52.31
68656;BME280;55638;51.122;13.606;2023-04-19T07:38:12;100815.63;;;7.04;53.07
68656;BME280;55638;51.122;13.606;2023-04-19T07:39:44;100813.63;;;7.08;53.47
68656;BME280;55638;51.122;13.606;2023-04-19T07:41:16;100814.22;;;7.13;53.26
68656;BME280;55638;51.122;13.606;2023-04-19T07:42:48;100818.53;;;7.15;53.23
68656;BME280;55638;51.122;13.606;2023-04-19T07:44:20;100816.63;;;7.18;52.90
68656;BME280;55638;51.122;13.606;2023-04-19T07:45:52;100821.00;;;7.19;53.00
68656;BME280;55638;51.122;13.606;2023-04-19T07:47:24;100818.25;;;7.20;52.25
68656;BME280;55638;51.122;13.606;2023-04-19T07:48:56;100807.41;;;7.22;52.15
68656;BME280;55638;51.122;13.606;2023-04-19T07:50:28;100818.94;;;7.24;52.08
68656;BME280;55638;51.122;13.606;2023-04-19T07:52:00;100813.56;;;7.24;52.41
68656;BME280;55638;51.122;13.606;2023-04-19T07:53:32;100817.03;;;7.26;52.80
68656;BME280;55638;51.122;13.606;2023-04-19T07:55:05;100822.97;;;7.31;53.23
68656;BME280;55638;51.122;13.606;2023-04-19T07:56:37;100811.13;;;7.35;53.51
68656;BME280;55638;51.122;13.606;2023-04-19T07:58:08;100816.88;;;7.43;54.18
68656;BME280;55638;51.122;13.606;2023-04-19T07:59:40;100810.97;;;7.52;54.84
68656;BME280;55638;51.122;13.606;2023-04-19T08:01:12;100814.69;;;7.64;54.49
68656;BME280;55638;51.122;13.606;2023-04-19T08:02:45;100818.06;;;7.82;54.91
68656;BME280;55638;51.122;13.606;2023-04-19T08:04:17;100812.50;;;7.99;54.15
68656;BME280;55638;51.122;13.606;2023-04-19T08:05:51;100806.94;;;8.17;54.32
68656;BME280;55638;51.122;13.606;2023-04-19T08:07:24;100804.72;;;8.38;55.10